Time;durP1;ratioP1;P1;durP2;ratioP2;P2;SDS_P1;SDS_P2;PMS_P1;PMS_P2;Temp;Humidity;BMP_temperature;BMP_pressure;BME280_temperature;BME280_humidity;BME280_pressure;Samples;Min_cycle;Max_cycle;Signal;HPM_P1;HPM_P2
2022/03/23 00:01:13;;;;;;;41.55;32.33;;;7.90;99.90;;;;;;5035640;28;20120;-59
2022/03/23 00:03:40;;;;;;;42.15;32.20;;;7.90;99.90;;;;;;5039217;28;20072;-58
2022/03/23 00:06:06;;;;;;;44.28;33.10;;;7.80;99.90;;;;;;5038500;28;20045;-58
2022/03/23 00:08:33;;;;;;;40.60;33.17;;;7.80;99.90;;;;;;5035714;28;20060;-58
2022/03/23 00:10:59;;;;;;;38.17;31.70;;;7.80;99.90;;;;;;5035668;28;20053;-59
2022/03/23 00:13:25;;;;;;;37.60;32.00;;;7.70;99.90;;;;;;5035654;28;20053;-58
2022/03/23 00:15:51;;;;;;;37.88;32.15;;;7.70;99.90;;;;;;5036959;28;20041;-60
2022/03/23 00:18:17;;;;;;;38.92;32.13;;;7.60;99.90;;;;;;5034113;28;20448;-58
2022/03/23 00:20:43;;;;;;;37.42;31.83;;;7.60;99.90;;;;;;5035811;28;20095;-58
2022/03/23 00:23:09;;;;;;;38.95;31.98;;;7.50;99.90;;;;;;5036849;28;20113;-58
2022/03/23 00:25:36;;;;;;;37.75;32.20;;;7.40;99.90;;;;;;5019260;28;20133;-59
2022/03/23 00:28:04;;;;;;;41.78;34.13;;;7.40;99.90;;;;;;5032471;28;20048;-59
2022/03/23 00:30:32;;;;;;;39.00;32.33;;;7.40;99.90;;;;;;5034105;28;20053;-59
2022/03/23 00:33:00;;;;;;;40.53;33.67;;;7.40;99.90;;;;;;5033479;28;20289;-59
2022/03/23 00:35:26;;;;;;;42.90;34.90;;;7.30;99.90;;;;;;5035175;28;20388;-59
2022/03/23 00:37:55;;;;;;;44.33;36.42;;;7.30;99.90;;;;;;5020297;28;20047;-59
2022/03/23 00:40:22;;;;;;;46.65;34.22;;;7.30;99.90;;;;;;5034901;28;20037;-59
2022/03/23 00:42:48;;;;;;;42.92;34.60;;;7.30;99.90;;;;;;5034056;28;20128;-59
2022/03/23 00:45:14;;;;;;;47.25;33.88;;;7.20;99.90;;;;;;5015837;28;20114;-60
2022/03/23 00:47:41;;;;;;;41.22;33.42;;;7.20;99.90;;;;;;5034916;28;20048;-59
2022/03/23 00:50:07;;;;;;;46.65;35.00;;;7.10;99.90;;;;;;5033840;28;20049;-59
2022/03/23 00:52:36;;;;;;;47.22;35.25;;;7.10;99.90;;;;;;5037808;28;20080;-60
2022/03/23 00:55:09;;;;;;;41.67;34.00;;;7.10;99.90;;;;;;5021093;28;20056;-59
2022/03/23 00:57:39;;;;;;;42.08;33.95;;;7.10;99.90;;;;;;5032594;28;20076;-59
2022/03/23 01:00:09;;;;;;;44.13;34.53;;;7.10;99.90;;;;;;5017309;28;20044;-58
2022/03/23 01:02:36;;;;;;;41.53;32.90;;;7.00;99.90;;;;;;5035386;28;20083;-59
2022/03/23 01:05:02;;;;;;;44.83;34.05;;;7.00;99.90;;;;;;5033786;28;20479;-59
2022/03/23 01:07:28;;;;;;;44.35;34.28;;;7.00;99.90;;;;;;5036556;28;20080;-59
2022/03/23 01:09:55;;;;;;;40.22;34.00;;;7.00;99.90;;;;;;5038348;28;20071;-59
2022/03/23 01:12:22;;;;;;;41.95;34.00;;;6.90;99.90;;;;;;5050810;28;20142;-59
2022/03/23 01:14:48;;;;;;;44.45;33.80;;;6.90;99.90;;;;;;5030530;28;20174;-59
2022/03/23 01:17:14;;;;;;;41.80;33.97;;;6.90;99.90;;;;;;5033829;28;20084;-59
2022/03/23 01:19:40;;;;;;;43.72;33.58;;;6.90;99.90;;;;;;5034992;28;20139;-59
2022/03/23 01:22:06;;;;;;;47.22;35.60;;;6.90;99.90;;;;;;5034960;28;20224;-58
2022/03/23 01:24:34;;;;;;;40.85;32.10;;;6.90;99.90;;;;;;5050576;28;20053;-59
2022/03/23 01:27:02;;;;;;;50.45;35.55;;;6.80;99.90;;;;;;5020283;28;20084;-59
2022/03/23 01:29:29;;;;;;;50.88;35.22;;;6.80;99.90;;;;;;5019172;28;20408;-59
2022/03/23 01:31:55;;;;;;;45.63;35.78;;;6.80;99.90;;;;;;5036833;28;20531;-59
2022/03/23 01:34:22;;;;;;;44.30;35.85;;;6.80;99.90;;;;;;5019750;28;20049;-59
2022/03/23 01:36:49;;;;;;;48.70;36.83;;;6.80;99.90;;;;;;5034547;28;20158;-59
2022/03/23 01:39:15;;;;;;;50.33;39.15;;;6.80;99.90;;;;;;5035912;28;20041;-59
2022/03/23 01:41:42;;;;;;;49.05;36.92;;;6.80;99.90;;;;;;5032682;28;20242;-59
2022/03/23 01:44:23;;;;;;;43.50;35.80;;;6.80;99.90;;;;;;5034240;28;20130;-59
2022/03/23 01:47:06;;;;;;;49.30;37.20;;;6.80;99.90;;;;;;5016882;28;20119;-59
2022/03/23 01:49:40;;;;;;;45.75;37.63;;;6.80;99.90;;;;;;5035593;28;20639;-59
2022/03/23 01:52:10;;;;;;;47.97;35.17;;;6.70;99.90;;;;;;5035480;28;20556;-59
2022/03/23 01:54:38;;;;;;;47.67;36.65;;;6.70;99.90;;;;;;5032026;28;20508;-58
2022/03/23 01:57:07;;;;;;;49.25;36.35;;;6.70;99.90;;;;;;5037645;28;20134;-59
2022/03/23 01:59:35;;;;;;;44.88;37.08;;;6.70;99.90;;;;;;5016832;28;20512;-58
2022/03/23 02:02:03;;;;;;;46.55;35.08;;;6.70;99.90;;;;;;5005420;28;20056;-58
2022/03/23 02:04:33;;;;;;;47.17;38.45;;;6.60;99.90;;;;;;5033049;28;20052;-59
2022/03/23 02:06:59;;;;;;;45.95;36.35;;;6.60;99.90;;;;;;5036130;28;20124;-58
2022/03/23 02:09:28;;;;;;;41.92;35.30;;;6.50;99.90;;;;;;5034687;28;20588;-58
2022/03/23 02:11:57;;;;;;;48.55;35.00;;;6.50;99.90;;;;;;5026875;28;20503;-58
2022/03/23 02:14:23;;;;;;;49.20;38.33;;;6.50;99.90;;;;;;5034423;28;20053;-58
2022/03/23 02:16:51;;;;;;;55.95;41.50;;;6.40;99.90;;;;;;5000627;28;20060;-58
2022/03/23 02:19:18;;;;;;;52.88;40.45;;;6.40;99.90;;;;;;5041720;28;20064;-58
2022/03/23 02:21:46;;;;;;;52.65;39.30;;;6.40;99.90;;;;;;5017902;28;20047;-58
2022/03/23 02:24:16;;;;;;;55.67;40.75;;;6.40;99.90;;;;;;5050645;28;20250;-58
2022/03/23 02:26:43;;;;;;;50.35;38.63;;;6.30;99.90;;;;;;5039264;28;20406;-59
2022/03/23 02:29:10;;;;;;;51.58;39.25;;;6.30;99.90;;;;;;5038707;28;20041;-59
2022/03/23 02:31:36;;;;;;;52.17;40.20;;;6.30;99.90;;;;;;5032739;28;20076;-59
2022/03/23 02:34:03;;;;;;;48.05;38.65;;;6.30;99.90;;;;;;5035140;28;20326;-58
2022/03/23 02:36:31;;;;;;;54.60;39.03;;;6.20;99.90;;;;;;5035121;28;20041;-58
2022/03/23 02:38:57;;;;;;;52.55;39.33;;;6.20;99.90;;;;;;5036111;28;20049;-58
2022/03/23 02:41:23;;;;;;;55.85;40.78;;;6.20;99.90;;;;;;5036887;28;20492;-58
2022/03/23 02:43:49;;;;;;;58.90;40.38;;;6.10;99.90;;;;;;5034376;28;20055;-58
2022/03/23 02:46:19;;;;;;;51.67;39.42;;;6.10;99.90;;;;;;5053520;28;20533;-58
2022/03/23 02:48:47;;;;;;;55.42;39.70;;;6.10;99.90;;;;;;5020059;28;20579;-58
2022/03/23 02:51:14;;;;;;;56.47;40.92;;;6.10;99.90;;;;;;5036322;28;20041;-58
2022/03/23 03:02:21;;;;;;;51.42;40.10;;;5.90;99.90;;;;;;5037427;28;20581;-58
2022/03/23 03:04:49;;;;;;;50.95;38.63;;;5.90;99.90;;;;;;5037426;28;20045;-58
2022/03/23 03:07:16;;;;;;;53.85;39.58;;;5.90;99.90;;;;;;5036613;28;20507;-58
2022/03/23 03:09:42;;;;;;;48.92;39.00;;;5.80;99.90;;;;;;5054113;28;20377;-58
2022/03/23 03:12:10;;;;;;;48.22;39.60;;;5.80;99.90;;;;;;5036960;28;20492;-58
2022/03/23 03:14:37;;;;;;;49.13;39.53;;;5.80;99.90;;;;;;5035450;28;20045;-58
2022/03/23 03:17:04;;;;;;;47.38;37.65;;;5.70;99.90;;;;;;5038046;28;20053;-58
2022/03/23 03:19:30;;;;;;;51.92;39.05;;;5.70;99.90;;;;;;5052411;28;20045;-58
2022/03/23 03:21:56;;;;;;;49.50;37.47;;;5.70;99.90;;;;;;5041180;28;20494;-58
2022/03/23 03:24:22;;;;;;;50.78;38.20;;;5.70;99.90;;;;;;5038453;28;20048;-57
2022/03/23 03:26:50;;;;;;;48.22;37.00;;;5.60;99.90;;;;;;5052064;28;20048;-58
2022/03/23 03:29:17;;;;;;;49.08;37.78;;;5.60;99.90;;;;;;5038395;28;20356;-57
2022/03/23 03:31:43;;;;;;;46.30;36.65;;;5.60;99.90;;;;;;5038415;28;20064;-58
2022/03/23 03:34:09;;;;;;;48.78;37.35;;;5.60;99.90;;;;;;5020814;28;20160;-59
2022/03/23 03:36:36;;;;;;;47.88;36.10;;;5.50;99.90;;;;;;5034637;28;20381;-59
2022/03/23 03:39:04;;;;;;;48.97;36.40;;;5.50;99.90;;;;;;5039815;28;20519;-59
2022/03/23 03:41:31;;;;;;;44.85;35.88;;;5.50;99.90;;;;;;5037989;28;20444;-59
2022/03/23 03:43:57;;;;;;;53.40;37.30;;;5.40;99.90;;;;;;5036439;28;20413;-59
2022/03/23 03:46:24;;;;;;;52.95;38.10;;;5.40;99.90;;;;;;5038341;28;20059;-59
2022/03/23 03:48:50;;;;;;;48.53;36.92;;;5.40;99.90;;;;;;5037311;28;20045;-59
2022/03/23 03:51:17;;;;;;;50.47;37.75;;;5.30;99.90;;;;;;5036709;28;20504;-58
2022/03/23 03:53:43;;;;;;;50.33;37.38;;;5.30;99.90;;;;;;5039904;28;20463;-58
2022/03/23 03:56:10;;;;;;;52.70;39.30;;;5.30;99.90;;;;;;5039231;28;20206;-60
2022/03/23 03:58:38;;;;;;;51.70;38.33;;;5.20;99.90;;;;;;5036025;28;20063;-59
2022/03/23 04:01:04;;;;;;;50.53;39.35;;;5.30;99.90;;;;;;5036458;28;20049;-58
2022/03/23 04:03:31;;;;;;;53.78;39.75;;;5.20;99.90;;;;;;5017429;28;20040;-58
2022/03/23 04:05:57;;;;;;;51.65;36.95;;;5.30;99.90;;;;;;5040503;28;20040;-58
2022/03/23 04:08:23;;;;;;;52.78;39.50;;;5.20;99.90;;;;;;5017906;28;20049;-58
2022/03/23 04:10:49;;;;;;;50.78;39.60;;;5.20;99.90;;;;;;5034790;28;20083;-58
2022/03/23 04:13:15;;;;;;;51.05;38.30;;;5.20;99.90;;;;;;5038321;28;20123;-58
2022/03/23 04:15:41;;;;;;;48.95;37.42;;;5.20;99.90;;;;;;5035176;28;20500;-58
2022/03/23 04:18:08;;;;;;;60.13;41.85;;;5.10;99.90;;;;;;5034810;28;20433;-58
2022/03/23 04:20:35;;;;;;;53.72;41.10;;;5.20;99.90;;;;;;5001134;28;20044;-58
2022/03/23 04:23:01;;;;;;;53.00;40.97;;;5.20;99.90;;;;;;5034589;28;20041;-58
2022/03/23 04:25:27;;;;;;;53.47;38.53;;;5.20;99.90;;;;;;5033826;28;20040;-58
2022/03/23 04:27:57;;;;;;;54.05;39.65;;;5.10;99.90;;;;;;5035914;28;21072;-58
2022/03/23 04:30:27;;;;;;;54.88;38.47;;;5.10;99.90;;;;;;5034874;28;20080;-58
2022/03/23 04:32:54;;;;;;;55.15;39.45;;;5.10;99.90;;;;;;5022021;28;20407;-58
2022/03/23 04:35:23;;;;;;;53.60;38.17;;;5.00;99.90;;;;;;5038306;28;20476;-59
2022/03/23 04:37:50;;;;;;;53.95;39.97;;;5.00;99.90;;;;;;5039249;28;20577;-59
2022/03/23 04:40:16;;;;;;;49.75;38.47;;;5.00;99.90;;;;;;5034461;28;20057;-58
2022/03/23 04:42:44;;;;;;;53.13;39.90;;;5.00;99.90;;;;;;5035003;28;20057;-59
2022/03/23 04:45:12;;;;;;;54.00;39.72;;;5.00;99.90;;;;;;5020093;28;20135;-59
2022/03/23 04:47:39;;;;;;;48.80;37.28;;;5.00;99.90;;;;;;5030670;28;20071;-62
2022/03/23 04:50:08;;;;;;;50.45;38.80;;;5.00;99.90;;;;;;5046382;28;20037;-59
2022/03/23 04:52:35;;;;;;;56.08;39.83;;;5.00;99.90;;;;;;5032879;28;20080;-59
2022/03/23 04:55:03;;;;;;;55.13;41.13;;;5.00;99.90;;;;;;5033096;28;20041;-59
2022/03/23 04:57:29;;;;;;;52.95;39.72;;;5.00;99.90;;;;;;5053325;28;20128;-58
2022/03/23 04:59:58;;;;;;;51.95;40.83;;;4.90;99.90;;;;;;5035319;28;20075;-59
2022/03/23 05:02:27;;;;;;;50.95;37.78;;;4.90;99.90;;;;;;5030293;28;20605;-59
2022/03/23 05:04:53;;;;;;;55.13;39.75;;;4.80;99.90;;;;;;5040699;28;20076;-59
2022/03/23 05:07:19;;;;;;;51.13;39.60;;;4.80;99.90;;;;;;5021085;28;20060;-59
2022/03/23 05:09:46;;;;;;;52.20;38.17;;;4.80;99.90;;;;;;5049736;28;20043;-59
2022/03/23 05:12:12;;;;;;;50.92;38.72;;;4.80;99.90;;;;;;5037309;28;20173;-58
2022/03/23 05:14:38;;;;;;;52.08;38.65;;;4.80;99.90;;;;;;5037075;28;20191;-58
2022/03/23 05:17:04;;;;;;;49.92;37.78;;;4.80;99.90;;;;;;5034726;28;20049;-58
2022/03/23 05:19:31;;;;;;;51.60;38.42;;;4.70;99.90;;;;;;5040558;28;20041;-58
2022/03/23 05:21:57;;;;;;;52.25;37.72;;;4.80;99.90;;;;;;5037307;28;20073;-58
2022/03/23 05:24:23;;;;;;;52.85;39.33;;;4.70;99.90;;;;;;5032648;28;20041;-58
2022/03/23 05:26:49;;;;;;;54.22;38.42;;;4.70;99.90;;;;;;5032629;28;20053;-58
2022/03/23 05:29:15;;;;;;;51.90;38.80;;;4.70;99.90;;;;;;5033638;28;20084;-57
2022/03/23 05:31:41;;;;;;;48.17;37.10;;;4.70;99.90;;;;;;5033067;28;20385;-58
2022/03/23 05:34:08;;;;;;;55.13;41.05;;;4.60;99.90;;;;;;5034808;28;20661;-58
2022/03/23 05:36:34;;;;;;;54.33;41.55;;;4.60;99.90;;;;;;5034919;28;20092;-58
2022/03/23 05:39:00;;;;;;;56.25;39.90;;;4.70;99.90;;;;;;5032002;28;20048;-58
2022/03/23 05:41:26;;;;;;;55.58;41.78;;;4.60;99.90;;;;;;5032053;28;20382;-58
2022/03/23 05:43:53;;;;;;;53.75;40.63;;;4.70;99.90;;;;;;5032774;28;20052;-58
2022/03/23 05:46:19;;;;;;;57.60;39.92;;;4.70;99.90;;;;;;5029954;28;20132;-58
2022/03/23 05:48:45;;;;;;;57.53;42.05;;;4.70;99.90;;;;;;5018364;28;20049;-58
2022/03/23 05:51:11;;;;;;;61.72;43.35;;;4.70;99.90;;;;;;5031495;28;20462;-58
2022/03/23 05:53:38;;;;;;;52.85;41.13;;;4.70;99.90;;;;;;5037270;28;20217;-58
2022/03/23 05:56:07;;;;;;;54.20;41.00;;;4.80;99.90;;;;;;5033149;28;20044;-58
2022/03/23 05:58:36;;;;;;;58.40;42.58;;;4.70;99.90;;;;;;5041254;28;20548;-58
2022/03/23 06:01:03;;;;;;;54.88;40.38;;;4.80;99.90;;;;;;5033461;28;20183;-58
2022/03/23 06:03:31;;;;;;;51.78;40.25;;;4.80;99.90;;;;;;5040402;28;20060;-59
2022/03/23 06:05:57;;;;;;;57.63;39.00;;;4.80;99.90;;;;;;5037780;28;20045;-61
2022/03/23 06:08:24;;;;;;;50.50;38.50;;;4.90;99.90;;;;;;5035320;28;20122;-58
2022/03/23 06:10:50;;;;;;;54.33;40.65;;;5.10;99.90;;;;;;5043657;28;20506;-59
2022/03/23 06:13:16;;;;;;;52.40;39.50;;;5.00;99.90;;;;;;5039184;28;20412;-59
2022/03/23 06:15:42;;;;;;;53.13;41.15;;;5.00;99.90;;;;;;5022108;28;20151;-58
2022/03/23 06:18:08;;;;;;;60.92;42.00;;;5.10;99.90;;;;;;5044289;28;20124;-58
2022/03/23 06:20:34;;;;;;;57.50;41.90;;;5.10;99.90;;;;;;5042914;28;20076;-58
2022/03/23 06:23:00;;;;;;;56.72;42.65;;;5.10;99.90;;;;;;5043689;28;20646;-59
2022/03/23 06:25:26;;;;;;;51.65;41.22;;;5.20;99.90;;;;;;5041841;28;20041;-59
2022/03/23 06:27:53;;;;;;;56.33;41.25;;;5.20;99.90;;;;;;5041509;28;20195;-58
2022/03/23 06:30:19;;;;;;;54.00;41.28;;;5.20;99.90;;;;;;5037742;28;20049;-58
2022/03/23 06:32:46;;;;;;;55.33;42.13;;;5.30;99.90;;;;;;5042525;28;20450;-58
2022/03/23 06:35:12;;;;;;;54.20;43.58;;;5.40;99.90;;;;;;5043636;28;20155;-58
2022/03/23 06:37:39;;;;;;;57.88;42.22;;;5.50;99.90;;;;;;5040579;28;20049;-58
2022/03/23 06:40:06;;;;;;;56.42;42.83;;;5.60;99.90;;;;;;5055643;28;20412;-58
2022/03/23 06:42:32;;;;;;;54.80;45.15;;;5.70;99.90;;;;;;5041159;28;20152;-59
2022/03/23 06:44:58;;;;;;;61.80;47.08;;;5.90;99.90;;;;;;5044151;28;20412;-59
2022/03/23 06:47:24;;;;;;;62.58;46.75;;;6.00;99.90;;;;;;5041513;28;20163;-59
2022/03/23 06:49:50;;;;;;;62.20;45.50;;;6.20;99.90;;;;;;5039013;28;20036;-58
2022/03/23 06:52:17;;;;;;;59.67;45.97;;;6.30;99.90;;;;;;5041862;28;20051;-58
2022/03/23 06:54:43;;;;;;;57.28;44.35;;;6.50;99.90;;;;;;5040347;28;20076;-60
2022/03/23 06:57:09;;;;;;;61.85;45.72;;;6.70;99.90;;;;;;5042799;28;20045;-59
2022/03/23 06:59:39;;;;;;;53.70;44.10;;;6.90;99.90;;;;;;5040260;28;20523;-58
2022/03/23 07:02:05;;;;;;;54.10;43.30;;;7.20;99.90;;;;;;5036687;28;20600;-59
2022/03/23 07:04:32;;;;;;;51.03;41.72;;;7.50;99.90;;;;;;5034934;28;20143;-59
2022/03/23 07:06:58;;;;;;;51.53;41.67;;;7.90;99.90;;;;;;5055909;28;20091;-59
2022/03/23 07:09:33;;;;;;;52.50;40.25;;;8.20;99.90;;;;;;5042162;28;20057;-63
2022/03/23 07:12:00;;;;;;;49.25;40.42;;;8.60;99.90;;;;;;5057459;28;20068;-59
2022/03/23 07:14:30;;;;;;;49.65;38.58;;;9.00;99.90;;;;;;5040813;28;20056;-59
2022/03/23 07:16:56;;;;;;;43.88;37.90;;;9.40;99.90;;;;;;5042348;28;20059;-60
2022/03/23 07:19:23;;;;;;;46.78;37.53;;;9.80;99.90;;;;;;5041783;28;20062;-59
2022/03/23 07:21:50;;;;;;;44.20;38.30;;;10.20;99.90;;;;;;5042674;28;20052;-59
2022/03/23 07:24:17;;;;;;;41.50;36.15;;;10.70;99.90;;;;;;5040313;28;20050;-59
2022/03/23 07:26:44;;;;;;;40.50;36.10;;;11.10;99.90;;;;;;5038255;28;20075;-60
2022/03/23 07:29:10;;;;;;;44.55;39.55;;;11.50;99.90;;;;;;5035722;28;20088;-59
2022/03/23 07:31:37;;;;;;;40.90;35.88;;;12.00;99.90;;;;;;5039770;28;20573;-58
2022/03/23 07:34:03;;;;;;;38.45;32.63;;;12.30;99.90;;;;;;5038124;28;20148;-58
2022/03/23 07:36:30;;;;;;;39.28;32.80;;;12.80;99.90;;;;;;5037995;28;20500;-59
2022/03/23 07:38:56;;;;;;;36.92;32.85;;;13.10;99.90;;;;;;5053188;28;20407;-58
2022/03/23 07:41:22;;;;;;;40.30;33.58;;;13.30;99.90;;;;;;5054412;28;20052;-59
2022/03/23 07:43:49;;;;;;;35.13;30.75;;;13.80;99.90;;;;;;5020836;28;20049;-59
2022/03/23 07:46:16;;;;;;;36.15;31.88;;;14.10;99.90;;;;;;5014102;28;20432;-59
2022/03/23 07:48:42;;;;;;;33.42;29.98;;;14.70;99.90;;;;;;5036182;28;20037;-59
2022/03/23 07:51:08;;;;;;;31.77;28.38;;;14.80;97.70;;;;;;5037123;28;20106;-59
2022/03/23 07:53:35;;;;;;;31.42;27.50;;;15.20;88.00;;;;;;5053581;28;20465;-59
2022/03/23 07:56:01;;;;;;;31.20;28.00;;;15.60;71.60;;;;;;5042032;28;20040;-59
2022/03/23 07:58:29;;;;;;;31.63;28.33;;;15.90;59.90;;;;;;5039959;28;20048;-59
2022/03/23 08:00:56;;;;;;;30.52;27.42;;;16.30;58.90;;;;;;5038902;28;20428;-60
2022/03/23 08:03:23;;;;;;;31.25;27.88;;;16.40;60.00;;;;;;5039415;28;20163;-60
2022/03/23 08:05:49;;;;;;;30.58;27.48;;;16.80;58.60;;;;;;5055138;28;20519;-59
2022/03/23 08:08:15;;;;;;;31.63;28.50;;;17.30;57.50;;;;;;5038481;28;20045;-59
2022/03/23 08:10:43;;;;;;;30.92;27.67;;;17.20;56.90;;;;;;5040121;28;20037;-60
2022/03/23 08:13:10;;;;;;;29.67;26.52;;;17.50;57.60;;;;;;5038404;28;20394;-59
2022/03/23 08:15:37;;;;;;;30.15;26.27;;;17.60;56.00;;;;;;5038229;28;20045;-59
2022/03/23 08:18:04;;;;;;;31.08;27.65;;;18.00;55.40;;;;;;5041196;28;20075;-59
2022/03/23 08:20:34;;;;;;;29.67;26.50;;;18.20;54.30;;;;;;5041099;28;20508;-60
2022/03/23 08:23:10;;;;;;;29.00;26.20;;;18.10;52.90;;;;;;5042444;28;20037;-59
2022/03/23 08:25:41;;;;;;;29.63;26.65;;;18.30;50.50;;;;;;5053757;28;20049;-60
2022/03/23 08:28:12;;;;;;;29.67;26.73;;;18.50;49.90;;;;;;5057043;28;20099;-60
2022/03/23 08:30:40;;;;;;;26.70;24.10;;;18.70;50.10;;;;;;5036530;28;20095;-60
2022/03/23 08:33:07;;;;;;;29.42;26.30;;;19.20;46.80;;;;;;5041238;28;20504;-59
2022/03/23 08:35:34;;;;;;;27.23;24.40;;;19.20;44.60;;;;;;5042833;28;20056;-61
2022/03/23 08:38:00;;;;;;;27.25;24.55;;;19.50;43.70;;;;;;5026442;28;20059;-59
2022/03/23 08:40:27;;;;;;;27.73;24.85;;;19.60;43.40;;;;;;5041838;28;20043;-59
2022/03/23 08:42:53;;;;;;;26.63;23.88;;;19.70;43.30;;;;;;5043364;28;20045;-59
2022/03/23 08:45:19;;;;;;;24.73;22.42;;;20.20;40.90;;;;;;4986087;28;20049;-59
2022/03/23 08:47:47;;;;;;;24.00;21.55;;;20.40;40.50;;;;;;5040958;28;20510;-59
2022/03/23 08:50:13;;;;;;;25.48;22.88;;;20.10;39.90;;;;;;5042389;28;20051;-59
2022/03/23 08:52:40;;;;;;;24.70;22.50;;;20.20;40.10;;;;;;5022474;28;20037;-59
2022/03/23 08:55:09;;;;;;;24.58;22.02;;;20.70;38.20;;;;;;5055092;28;20187;-60
2022/03/23 08:57:36;;;;;;;24.45;21.90;;;20.70;38.90;;;;;;5059268;28;20118;-59
2022/03/23 09:00:07;;;;;;;25.20;22.80;;;20.80;39.90;;;;;;5044356;28;20052;-60
2022/03/23 09:02:33;;;;;;;24.88;22.45;;;21.30;38.20;;;;;;5044353;28;20057;-60
2022/03/23 09:04:59;;;;;;;24.60;22.23;;;21.20;38.40;;;;;;5040402;28;21697;-58
2022/03/23 09:07:25;;;;;;;23.98;20.48;;;21.80;38.70;;;;;;5056416;28;20041;-57
2022/03/23 09:09:52;;;;;;;23.05;20.83;;;22.40;38.00;;;;;;5036965;28;20049;-58
2022/03/23 09:12:19;;;;;;;32.08;27.48;;;22.20;36.90;;;;;;5038350;28;20546;-59
2022/03/23 09:14:45;;;;;;;28.27;25.52;;;22.40;37.70;;;;;;5054016;28;20556;-62
2022/03/23 09:17:11;;;;;;;28.77;24.88;;;22.90;37.50;;;;;;5016452;28;20083;-64
2022/03/23 09:19:37;;;;;;;23.08;21.05;;;23.30;36.70;;;;;;5038635;28;20367;-63
2022/03/23 09:22:03;;;;;;;28.42;25.80;;;23.10;36.40;;;;;;5040865;28;20120;-65
2022/03/23 09:24:30;;;;;;;25.25;22.85;;;23.20;35.90;;;;;;5038432;28;20120;-64
2022/03/23 09:26:57;;;;;;;23.50;21.40;;;23.30;34.50;;;;;;5038720;28;20428;-64
2022/03/23 09:29:23;;;;;;;23.90;21.70;;;23.60;32.10;;;;;;5039428;28;20080;-62
2022/03/23 09:31:49;;;;;;;31.48;28.30;;;23.50;32.70;;;;;;5019246;28;20048;-62
2022/03/23 09:34:15;;;;;;;22.25;20.10;;;23.80;33.70;;;;;;5051487;28;20086;-60
2022/03/23 09:39:46;;;;;;;24.35;21.88;;;24.30;31.80;;;;;;5014203;28;20110;-59
2022/03/23 09:42:12;;;;;;;22.13;20.02;;;24.40;31.90;;;;;;4981439;28;20459;-60
2022/03/23 09:44:39;;;;;;;34.47;31.17;;;24.20;31.80;;;;;;5026427;28;20664;-60
2022/03/23 09:47:06;;;;;;;31.38;28.42;;;24.60;31.60;;;;;;5038403;28;20063;-60
2022/03/23 09:49:32;;;;;;;25.75;23.00;;;24.60;31.10;;;;;;5024192;28;20084;-59
2022/03/23 09:52:00;;;;;;;28.35;25.73;;;25.10;30.40;;;;;;5043055;28;20053;-58
2022/03/23 09:54:26;;;;;;;19.95;18.23;;;24.70;30.00;;;;;;5043844;28;20048;-59
2022/03/23 09:56:52;;;;;;;31.33;28.13;;;24.90;29.70;;;;;;5044575;28;20061;-60
2022/03/23 09:59:18;;;;;;;18.73;16.95;;;24.80;29.30;;;;;;5042228;28;20409;-58
2022/03/23 10:01:44;;;;;;;16.48;14.65;;;24.90;28.80;;;;;;5041347;28;20059;-59
2022/03/23 10:04:14;;;;;;;22.73;20.33;;;24.60;28.30;;;;;;5037778;28;20044;-57
2022/03/23 10:07:01;;;;;;;20.40;18.27;;;24.60;27.70;;;;;;5039804;28;20067;-57
2022/03/23 10:09:54;;;;;;;29.50;26.77;;;24.70;27.50;;;;;;5044547;28;20566;-58
2022/03/23 10:12:42;;;;;;;22.27;20.10;;;25.30;28.00;;;;;;5042737;28;20429;-57
2022/03/23 10:15:29;;;;;;;24.85;22.35;;;25.50;27.50;;;;;;5040389;28;20045;-57
2022/03/23 10:18:20;;;;;;;26.38;23.98;;;25.40;26.70;;;;;;5045188;28;20515;-58
2022/03/23 10:20:47;;;;;;;17.25;15.55;;;25.50;26.10;;;;;;5042599;28;20107;-58
2022/03/23 10:23:13;;;;;;;16.13;14.55;;;25.90;26.90;;;;;;5040406;28;20064;-58
2022/03/23 10:25:40;;;;;;;19.02;17.27;;;25.50;26.60;;;;;;5054598;28;20124;-58
2022/03/23 10:28:14;;;;;;;16.70;15.02;;;25.40;27.00;;;;;;5044366;28;20041;-58
2022/03/23 10:30:43;;;;;;;16.73;14.60;;;25.70;26.70;;;;;;5037621;28;20040;-58
2022/03/23 10:33:36;;;;;;;20.40;18.52;;;25.20;26.70;;;;;;5051303;28;20429;-58
2022/03/23 10:36:03;;;;;;;19.73;17.52;;;25.70;26.40;;;;;;5052248;28;20057;-58
2022/03/23 10:38:36;;;;;;;15.82;14.02;;;25.40;26.50;;;;;;5042699;28;20048;-59
2022/03/23 10:41:10;;;;;;;22.40;20.08;;;25.80;26.80;;;;;;5007582;28;20242;-59
2022/03/23 10:43:38;;;;;;;18.60;16.33;;;25.90;26.60;;;;;;5043697;28;20045;-59
2022/03/23 10:46:11;;;;;;;17.23;15.20;;;26.30;26.40;;;;;;5042715;28;20061;-59
2022/03/23 10:48:48;;;;;;;42.03;38.00;;;26.30;25.00;;;;;;5041217;28;20055;-58
2022/03/23 10:51:31;;;;;;;33.05;30.02;;;26.10;26.30;;;;;;5029197;28;20370;-58
2022/03/23 10:53:58;;;;;;;17.38;15.68;;;26.30;25.70;;;;;;5058923;28;20493;-58
2022/03/23 10:56:32;;;;;;;16.13;14.50;;;26.90;26.10;;;;;;5041887;28;20049;-60
2022/03/23 10:59:26;;;;;;;13.10;11.75;;;26.80;25.70;;;;;;5055975;28;20106;-58
2022/03/23 11:02:05;;;;;;;17.33;12.88;;;26.40;25.20;;;;;;5041799;28;20052;-59
2022/03/23 11:04:56;;;;;;;15.15;13.52;;;26.50;25.90;;;;;;5041031;28;20080;-59
2022/03/23 11:07:25;;;;;;;15.05;12.98;;;26.50;25.80;;;;;;5054567;28;20068;-59
2022/03/23 11:18:20;;;;;;;13.57;11.90;;;26.50;25.60;;;;;;5042115;28;20520;-59
2022/03/23 11:20:55;;;;;;;15.98;12.35;;;27.00;25.00;;;;;;5042472;28;20041;-59
2022/03/23 11:23:27;;;;;;;19.13;13.02;;;26.90;26.00;;;;;;5034539;28;20048;-59
2022/03/23 11:26:00;;;;;;;15.60;12.80;;;27.30;26.30;;;;;;5040973;28;20392;-59
2022/03/23 11:28:32;;;;;;;19.15;12.82;;;27.00;26.20;;;;;;5055867;28;20041;-60
2022/03/23 11:30:58;;;;;;;20.42;13.55;;;26.80;25.50;;;;;;5040531;28;20454;-59
2022/03/23 11:33:26;;;;;;;18.30;13.40;;;27.20;25.70;;;;;;5024929;28;20463;-59
2022/03/23 11:35:53;;;;;;;14.55;11.40;;;27.30;25.30;;;;;;5033961;28;20806;-60
2022/03/23 11:38:22;;;;;;;18.30;16.50;;;27.80;25.30;;;;;;5038193;28;20045;-59
2022/03/23 11:40:50;;;;;;;14.52;13.00;;;27.60;25.70;;;;;;5054435;28;20053;-59
2022/03/23 11:43:18;;;;;;;16.88;13.93;;;27.60;25.30;;;;;;5038842;28;20110;-59
2022/03/23 11:45:46;;;;;;;15.02;12.43;;;27.90;26.00;;;;;;5034796;28;20542;-60
2022/03/23 11:48:35;;;;;;;17.15;12.55;;;28.20;25.50;;;;;;5039875;28;20625;-60
2022/03/23 11:51:21;;;;;;;16.90;12.02;;;28.50;25.10;;;;;;5039379;28;20040;-59
2022/03/23 11:54:02;;;;;;;18.85;12.43;;;27.60;25.80;;;;;;5050957;28;20045;-60
2022/03/23 11:56:58;;;;;;;15.27;12.95;;;27.80;25.70;;;;;;5032897;28;20041;-59
2022/03/23 11:59:29;;;;;;;18.35;12.77;;;27.90;25.20;;;;;;5014082;28;20274;-59
2022/03/23 12:01:58;;;;;;;23.52;17.17;;;28.00;26.00;;;;;;5026901;28;20429;-59
2022/03/23 12:04:25;;;;;;;22.48;16.15;;;28.50;26.00;;;;;;5023048;28;20441;-59
2022/03/23 12:07:00;;;;;;;22.38;13.07;;;29.10;25.60;;;;;;5038709;28;21354;-60
2022/03/23 12:09:36;;;;;;;14.57;11.55;;;28.80;25.30;;;;;;5055248;28;20110;-60
2022/03/23 12:12:10;;;;;;;21.63;14.60;;;28.60;25.50;;;;;;5036163;28;20144;-58
2022/03/23 12:14:38;;;;;;;16.02;12.65;;;29.00;25.80;;;;;;5039155;28;20063;-58
2022/03/23 12:17:15;;;;;;;19.65;11.88;;;29.20;25.90;;;;;;5039370;28;20152;-59
2022/03/23 12:20:07;;;;;;;14.82;10.85;;;29.20;26.20;;;;;;5037069;28;20143;-58
2022/03/23 12:22:33;;;;;;;16.80;11.25;;;29.50;25.30;;;;;;5037575;28;20045;-58
2022/03/23 12:25:26;;;;;;;16.08;11.23;;;29.00;25.80;;;;;;5039061;28;20564;-58
2022/03/23 12:28:15;;;;;;;20.80;11.05;;;29.00;25.80;;;;;;5054909;28;20056;-58
2022/03/23 12:30:56;;;;;;;17.65;9.35;;;29.10;25.90;;;;;;5039074;28;20106;-60
2022/03/23 12:33:26;;;;;;;19.90;11.00;;;28.60;24.70;;;;;;5037197;28;20194;-58
2022/03/23 12:35:57;;;;;;;18.95;12.27;;;29.10;25.60;;;;;;5038393;28;20044;-58
2022/03/23 12:38:29;;;;;;;16.48;11.02;;;29.10;25.70;;;;;;5040622;28;20045;-58
2022/03/23 12:41:13;;;;;;;17.85;10.10;;;29.00;25.60;;;;;;5038611;28;20037;-58
2022/03/23 12:43:46;;;;;;;17.85;10.32;;;29.30;25.40;;;;;;5036933;28;20171;-58
2022/03/23 12:46:28;;;;;;;19.42;11.35;;;29.10;25.50;;;;;;5021450;28;20079;-58
2022/03/23 13:00:25;;;;;;;23.13;12.20;;;29.70;25.20;;;;;;5029489;28;20053;-58
2022/03/23 13:03:06;;;;;;;43.90;39.40;;;29.60;25.00;;;;;;5054275;28;20049;-58
2022/03/23 13:05:33;;;;;;;39.05;34.70;;;29.50;25.20;;;;;;5040011;28;20600;-59
2022/03/23 13:07:59;;;;;;;21.50;14.27;;;29.30;25.70;;;;;;5036422;28;20051;-59
2022/03/23 13:10:26;;;;;;;20.25;14.55;;;29.20;25.40;;;;;;5040488;28;20046;-58
2022/03/23 13:13:07;;;;;;;16.92;13.18;;;29.20;24.90;;;;;;5057252;28;20049;-58